Aviation Digital Data Service (ADDS)

Output produced by METARs form (0603 UTC 18 January 2018)
found at http://www.aviationweather.gov/adds/metars/
 
EPWA 180600Z 25007KT 220V280 9999 BKN011 01/M01 Q1002 R33/2///95 NOSIG
TAF EPWA 180530Z 1806/1906 24010KT 9999 BKN017 
     TEMPO 1806/1808 BKN009 
     BECMG 1817/1819 3000 RASN BKN006 OVC013 
     TEMPO 1817/1824 18018G32KT 0800 BLSN SN OVC003 
     BECMG 1900/1902 27010KT 
     TEMPO 1900/1906 1100 SHSNRA SHSN BKN004 BKN010CB